This is the latest recevied weather packets stored in our database for station/object KG7KID-5. If no packets are shown the sender has not sent any weather packets the latest 1 day(s).
| Time | Temp. | Humidity | Pressure | Rain* | Wind** | Luminosity | Snow |
|---|---|---|---|---|---|---|---|
| 1778029096 | 20° C | 26% | 924.5 hPa | 0 mm | 0 m/s | - | - |
| 1778028196 | 20.56° C | 23% | 924.3 hPa | 0 mm | 0 m/s | - | - |
| 1778027897 | 20.56° C | 22% | 924.2 hPa | 0 mm | 0 m/s | - | - |
| 1778027455 | 21.67° C | 21% | 924.1 hPa | 0 mm | 0 m/s | - | - |
| 1778027296 | 21.67° C | 21% | 924.1 hPa | 0 mm | 0 m/s | - | - |
| 1778026677 | 21.67° C | 22% | 923.9 hPa | 0 mm | 0 m/s | - | - |
| 1778026485 | 21.67° C | 22% | 923.9 hPa | 0 mm | 0 m/s | - | - |
| 1778025482 | 21.67° C | 20% | 923.9 hPa | 0 mm | 0 m/s | - | - |
| 1778025363 | 21.67° C | 21% | 923.8 hPa | 0 mm | 0 m/s | - | - |
| 1778025183 | 21.67° C | 21% | 923.8 hPa | 0 mm | 0 m/s | - | - |
| 1778024994 | 21.11° C | 21% | 923.8 hPa | 0 mm | 0 m/s | - | - |
| 1778024883 | 21.11° C | 21% | 923.8 hPa | 0 mm | 0 m/s | - | - |
| 1778023982 | 21.67° C | 21% | 923.7 hPa | 0 mm | 0 m/s | - | - |
| 1778023887 | 21.67° C | 21% | 923.7 hPa | 0 mm | 0 m/s | - | - |
| 1778023683 | 21.67° C | 21% | 923.7 hPa | 0 mm | 0 m/s | - | - |
| 1778023219 | 21.11° C | 22% | 923.8 hPa | 0 mm | 0 m/s | - | - |
| 1778023065 | 20.56° C | 23% | 923.6 hPa | 0 mm | 0 m/s | - | - |
| 1778022920 | 20.56° C | 23% | 923.6 hPa | 0 mm | 0 m/s | - | - |
| 1778022918 | 20.56° C | 23% | 923.6 hPa | 0 mm | 0 m/s | - | - |
| 1778022809 | 21.11° C | 22% | 923.6 hPa | 0 mm | 0 m/s | - | - |
| 1778022619 | 21.11° C | 22% | 923.6 hPa | 0 mm | 0 m/s | - | - |
| 1778022018 | 20.56° C | 26% | 923.6 hPa | 0 mm | 0 m/s | - | - |
| 1778020819 | 20° C | 25% | 923.8 hPa | 0 mm | 0 m/s | - | - |
| 1778020337 | 20° C | 25% | 923.7 hPa | 0 mm | 0 m/s | - | - |
| 1778020268 | 20° C | 25% | 923.7 hPa | 0 mm | 0 m/s | - | - |
* Rain latest hour (hover to see other rain measurements)
** Current wind speed in m/s (hover to see current wind gust speed)